createdAt,value
2023-03-29T00:01:35.383Z,16.65
2023-03-29T00:03:40.542Z,14.68
2023-03-29T00:05:44.936Z,17.58
2023-03-29T00:09:52.631Z,14.52
2023-03-29T00:11:58.047Z,13.50
2023-03-29T00:14:01.055Z,13.70
2023-03-29T00:16:03.640Z,16.30
2023-03-29T00:18:06.507Z,15.23
2023-03-29T00:20:10.492Z,24.52
2023-03-29T00:22:13.617Z,22.17
2023-03-29T00:24:16.248Z,18.73
2023-03-29T00:26:22.019Z,17.80
2023-03-29T00:28:24.592Z,20.17
2023-03-29T00:30:27.283Z,15.90
2023-03-29T00:32:33.228Z,15.88
2023-03-29T00:34:38.174Z,21.08
2023-03-29T00:36:40.775Z,17.25
2023-03-29T00:38:43.509Z,26.73
2023-03-29T00:40:47.221Z,17.02
2023-03-29T00:42:52.357Z,21.40
2023-03-29T00:45:01.077Z,20.40
2023-03-29T00:47:03.742Z,23.30
2023-03-29T00:49:09.600Z,23.67
2023-03-29T00:51:15.260Z,20.83
2023-03-29T00:53:21.927Z,17.92
2023-03-29T00:55:29.505Z,35.65
2023-03-29T00:57:34.121Z,19.48
2023-03-29T00:59:42.122Z,22.23
2023-03-29T01:01:48.607Z,18.30
2023-03-29T01:03:56.284Z,19.58
2023-03-29T01:06:02.576Z,19.13
2023-03-29T01:08:08.594Z,16.15
2023-03-29T01:10:16.375Z,17.33
2023-03-29T01:12:24.493Z,16.88
2023-03-29T01:14:34.050Z,18.50
2023-03-29T01:16:40.123Z,20.42
2023-03-29T01:18:42.814Z,18.13
2023-03-29T01:21:03.560Z,19.10
2023-03-29T01:23:27.113Z,20.23
2023-03-29T01:25:37.690Z,17.10
2023-03-29T01:27:51.837Z,20.88
2023-03-29T01:29:58.798Z,28.77
2023-03-29T01:32:05.353Z,19.05
2023-03-29T01:34:12.960Z,23.10
2023-03-29T01:36:20.832Z,17.20
2023-03-29T01:38:29.592Z,26.77
2023-03-29T01:40:33.785Z,18.73
2023-03-29T01:42:48.002Z,25.90
2023-03-29T01:44:57.980Z,17.13
2023-03-29T01:47:07.481Z,20.65
2023-03-29T01:49:17.010Z,20.67
2023-03-29T01:51:25.462Z,24.27
2023-03-29T01:53:32.563Z,18.85
2023-03-29T01:55:38.839Z,21.35
2023-03-29T01:57:47.522Z,19.67
2023-03-29T01:59:56.369Z,18.40
2023-03-29T02:02:02.528Z,17.75
2023-03-29T02:04:10.753Z,19.85
2023-03-29T02:06:17.169Z,21.80
2023-03-29T02:08:22.157Z,18.83
2023-03-29T02:10:25.861Z,22.00
2023-03-29T02:12:28.347Z,16.92
2023-03-29T02:14:33.714Z,22.63
2023-03-29T02:16:37.051Z,17.65
2023-03-29T02:18:40.516Z,21.33
2023-03-29T02:20:47.510Z,17.00
2023-03-29T02:22:55.271Z,17.38
2023-03-29T02:24:59.893Z,18.65
2023-03-29T02:27:02.605Z,19.33
2023-03-29T02:29:07.841Z,19.17
2023-03-29T02:31:21.478Z,18.20
2023-03-29T02:33:31.449Z,17.33
2023-03-29T02:35:41.040Z,17.83
2023-03-29T02:37:49.682Z,22.17
2023-03-29T02:39:53.973Z,18.65
2023-03-29T02:41:57.716Z,19.35
2023-03-29T02:44:02.099Z,18.08
2023-03-29T02:46:07.933Z,19.25
2023-03-29T02:48:17.415Z,18.13
2023-03-29T02:50:21.596Z,18.95
2023-03-29T02:52:28.807Z,21.37
2023-03-29T02:54:31.788Z,23.30
2023-03-29T02:56:43.554Z,18.50
2023-03-29T02:58:47.020Z,17.48
2023-03-29T03:00:50.540Z,18.83
2023-03-29T03:02:53.364Z,18.83
2023-03-29T03:04:59.519Z,17.50
2023-03-29T03:07:02.407Z,18.95
2023-03-29T03:09:06.138Z,21.02
2023-03-29T03:11:12.229Z,18.92
2023-03-29T03:13:15.550Z,21.25
2023-03-29T03:15:19.172Z,24.45
2023-03-29T03:17:23.281Z,22.75
2023-03-29T03:19:26.162Z,20.65
2023-03-29T03:21:31.297Z,21.63
2023-03-29T03:23:37.237Z,21.88
2023-03-29T03:25:40.281Z,26.02
2023-03-29T03:27:42.984Z,22.73
2023-03-29T03:29:46.342Z,21.33
2023-03-29T03:31:53.952Z,20.65
2023-03-29T03:34:15.712Z,21.55
2023-03-29T03:36:29.293Z,20.58
2023-03-29T03:38:37.593Z,21.05
2023-03-29T03:40:40.576Z,27.65
2023-03-29T03:42:43.153Z,23.48
2023-03-29T03:44:46.592Z,22.77
2023-03-29T03:47:13.916Z,19.42
2023-03-29T03:49:17.882Z,20.92
2023-03-29T03:51:20.493Z,22.65
2023-03-29T03:53:25.347Z,27.45
2023-03-29T03:55:51.896Z,24.02
2023-03-29T03:57:59.630Z,21.67
2023-03-29T04:02:18.047Z,18.40
2023-03-29T04:04:20.915Z,24.02
2023-03-29T04:06:50.684Z,24.95
2023-03-29T04:09:09.481Z,24.67
2023-03-29T04:11:18.230Z,27.33
2023-03-29T04:13:22.664Z,27.67
2023-03-29T04:15:46.241Z,30.65
2023-03-29T04:17:50.168Z,23.10
2023-03-29T04:20:12.786Z,25.98
2023-03-29T04:22:16.967Z,34.03
2023-03-29T04:24:19.542Z,25.17
2023-03-29T04:26:44.857Z,26.85
2023-03-29T04:28:54.782Z,21.58
2023-03-29T04:31:11.385Z,17.85
2023-03-29T04:33:34.263Z,17.35
2023-03-29T04:35:37.357Z,18.67
2023-03-29T04:37:42.054Z,18.20
2023-03-29T04:39:51.095Z,20.08
2023-03-29T04:41:56.434Z,17.35
2023-03-29T04:44:03.855Z,15.82
2023-03-29T04:46:09.559Z,12.48
2023-03-29T04:48:50.842Z,12.23
2023-03-29T04:51:02.305Z,12.18
2023-03-29T04:53:06.110Z,13.75
2023-03-29T04:55:09.783Z,10.00
2023-03-29T04:57:41.490Z,9.55
2023-03-29T04:59:52.677Z,8.43
2023-03-29T05:02:15.198Z,9.48
2023-03-29T05:04:20.946Z,11.07
2023-03-29T05:06:38.927Z,8.70
2023-03-29T05:08:43.852Z,8.80
2023-03-29T05:11:10.597Z,9.98
2023-03-29T05:15:19.570Z,9.50
2023-03-29T05:19:33.811Z,9.95
2023-03-29T05:21:36.829Z,8.65
2023-03-29T05:23:43.427Z,8.60
2023-03-29T05:25:47.886Z,10.45
2023-03-29T05:27:50.635Z,9.30
2023-03-29T05:29:56.283Z,9.65
2023-03-29T05:32:05.096Z,9.55
2023-03-29T05:34:09.247Z,9.32
2023-03-29T05:36:19.490Z,9.27
2023-03-29T05:38:43.069Z,10.15
2023-03-29T05:40:47.517Z,10.77
2023-03-29T05:43:12.339Z,9.85
2023-03-29T05:45:17.879Z,9.23
2023-03-29T05:47:20.555Z,9.90
2023-03-29T05:49:23.079Z,9.65
2023-03-29T05:51:57.289Z,11.02
2023-03-29T05:54:01.475Z,9.38
2023-03-29T05:56:04.590Z,9.27
2023-03-29T05:58:07.285Z,10.10
2023-03-29T06:00:32.111Z,10.52
2023-03-29T06:02:52.828Z,10.35
2023-03-29T06:04:57.703Z,10.38
2023-03-29T06:07:02.229Z,10.88
2023-03-29T06:09:15.918Z,10.88
2023-03-29T06:11:30.748Z,11.48
2023-03-29T06:13:58.515Z,11.93
2023-03-29T06:16:01.068Z,10.57
2023-03-29T06:18:07.286Z,11.70
2023-03-29T06:20:12.399Z,14.20
2023-03-29T06:22:18.483Z,11.55
2023-03-29T06:24:21.286Z,10.93
2023-03-29T06:26:29.622Z,10.82
2023-03-29T06:28:32.129Z,12.90
2023-03-29T06:30:34.838Z,11.23
2023-03-29T06:32:37.944Z,13.02
2023-03-29T06:34:54.753Z,11.52
2023-03-29T06:37:06.077Z,11.23
2023-03-29T06:39:08.895Z,11.80
2023-03-29T06:41:31.701Z,11.60
2023-03-29T06:43:43.381Z,13.70
2023-03-29T06:45:50.867Z,12.75
2023-03-29T06:48:03.794Z,13.10
2023-03-29T06:50:11.828Z,12.82
2023-03-29T06:52:28.324Z,14.02
2023-03-29T06:54:31.929Z,12.80
2023-03-29T06:56:41.249Z,11.60
2023-03-29T06:58:48.805Z,19.27
2023-03-29T07:01:14.313Z,12.35
2023-03-29T07:03:24.812Z,11.52
2023-03-29T07:05:42.255Z,12.40
2023-03-29T07:08:12.620Z,12.00
2023-03-29T07:10:38.456Z,12.02
2023-03-29T07:13:17.501Z,16.30
2023-03-29T07:15:21.611Z,12.55
2023-03-29T07:17:42.430Z,12.63
2023-03-29T07:19:45.095Z,12.48
2023-03-29T07:22:09.430Z,12.57
2023-03-29T07:24:22.682Z,13.25
2023-03-29T07:26:28.458Z,13.73
2023-03-29T07:28:33.300Z,11.70
2023-03-29T07:30:35.870Z,10.85
2023-03-29T07:32:47.458Z,12.43
2023-03-29T07:35:07.128Z,11.82
2023-03-29T07:37:13.793Z,11.70
2023-03-29T07:39:18.449Z,12.95
2023-03-29T07:41:38.726Z,10.80
2023-03-29T07:43:48.567Z,11.10
2023-03-29T07:45:59.202Z,16.98
2023-03-29T07:48:02.309Z,13.48
2023-03-29T07:50:20.014Z,11.57
2023-03-29T07:52:28.295Z,11.85
2023-03-29T07:54:32.969Z,15.10
2023-03-29T07:56:55.601Z,17.30
2023-03-29T07:59:07.274Z,10.40
2023-03-29T08:01:11.052Z,12.63
2023-03-29T08:03:34.191Z,9.82
2023-03-29T08:05:41.249Z,13.20
2023-03-29T08:07:52.221Z,10.95
2023-03-29T08:10:09.486Z,13.02
2023-03-29T08:12:26.374Z,11.02
2023-03-29T08:14:32.137Z,14.25
2023-03-29T08:16:40.521Z,12.88
2023-03-29T08:18:48.082Z,13.75
2023-03-29T08:20:54.141Z,11.32
2023-03-29T08:22:59.702Z,11.43
2023-03-29T08:25:20.728Z,11.30
2023-03-29T08:27:27.361Z,12.57
2023-03-29T08:29:31.402Z,12.45
2023-03-29T08:31:34.855Z,13.20
2023-03-29T08:33:37.737Z,9.98
2023-03-29T08:36:02.871Z,13.00
2023-03-29T08:38:11.353Z,12.02
2023-03-29T08:40:20.883Z,10.88
2023-03-29T08:43:06.405Z,10.15
2023-03-29T08:45:35.708Z,13.43
2023-03-29T08:47:50.949Z,10.80
2023-03-29T08:49:56.486Z,9.73
2023-03-29T08:52:14.983Z,11.43
2023-03-29T08:54:25.199Z,10.38
2023-03-29T08:56:50.235Z,9.68
2023-03-29T08:59:04.110Z,13.57
2023-03-29T09:01:11.801Z,11.15
2023-03-29T09:03:31.537Z,11.57
2023-03-29T09:05:44.611Z,11.18
2023-03-29T09:07:58.833Z,9.55
2023-03-29T09:10:04.931Z,10.73
2023-03-29T09:12:29.852Z,10.05
2023-03-29T09:14:51.958Z,11.23
2023-03-29T09:17:05.495Z,16.05
2023-03-29T09:19:18.846Z,12.77
2023-03-29T09:21:30.058Z,12.73
2023-03-29T09:23:50.488Z,13.30
2023-03-29T09:26:19.408Z,12.55
2023-03-29T09:28:45.907Z,13.35
2023-03-29T09:30:55.132Z,15.18
2023-03-29T09:33:02.067Z,12.55
2023-03-29T09:35:23.147Z,10.25
2023-03-29T09:37:33.589Z,11.60
2023-03-29T09:39:38.166Z,12.23
2023-03-29T09:41:52.556Z,13.27
2023-03-29T09:44:00.231Z,13.70
2023-03-29T09:46:16.192Z,17.90
2023-03-29T09:48:20.920Z,11.93
2023-03-29T09:50:34.977Z,13.15
2023-03-29T09:52:40.537Z,14.85
2023-03-29T09:54:54.081Z,16.10
2023-03-29T09:57:17.945Z,17.67
2023-03-29T09:59:21.021Z,17.35
2023-03-29T10:01:23.570Z,16.08
2023-03-29T10:03:29.767Z,18.23
2023-03-29T10:05:43.725Z,16.50
2023-03-29T10:07:52.717Z,14.43
2023-03-29T10:09:56.329Z,16.55
2023-03-29T10:12:03.883Z,16.75
2023-03-29T10:14:16.983Z,13.00
2023-03-29T10:16:21.764Z,14.57
2023-03-29T10:18:27.840Z,18.30
2023-03-29T10:20:30.534Z,13.43
2023-03-29T10:22:37.876Z,12.80
2023-03-29T10:24:40.614Z,15.18
2023-03-29T10:26:43.505Z,15.32
2023-03-29T10:28:46.223Z,12.57
2023-03-29T10:30:55.492Z,14.50
2023-03-29T10:32:59.968Z,14.55
2023-03-29T10:35:10.931Z,14.32
2023-03-29T10:37:14.869Z,13.93
2023-03-29T10:39:17.607Z,15.68
2023-03-29T10:41:21.964Z,13.23
2023-03-29T10:45:37.859Z,15.75
2023-03-29T10:47:45.617Z,16.00
2023-03-29T10:49:54.360Z,14.65
2023-03-29T10:51:58.550Z,17.92
2023-03-29T10:54:02.575Z,27.95
2023-03-29T10:56:23.150Z,19.60
2023-03-29T10:58:33.604Z,13.98
2023-03-29T11:00:44.201Z,17.40
2023-03-29T11:03:31.716Z,14.82
2023-03-29T11:05:44.822Z,16.65
2023-03-29T11:08:02.091Z,15.98
2023-03-29T11:10:26.250Z,27.88
2023-03-29T11:12:35.120Z,17.92
2023-03-29T11:14:48.120Z,22.42
2023-03-29T11:16:58.560Z,19.75
2023-03-29T11:19:29.406Z,16.52
2023-03-29T11:21:43.012Z,19.77
2023-03-29T11:23:54.284Z,15.95
2023-03-29T11:26:05.364Z,17.17
2023-03-29T11:28:14.938Z,25.13
2023-03-29T11:30:24.161Z,22.20
2023-03-29T11:32:33.535Z,19.92
2023-03-29T11:34:45.818Z,14.10
2023-03-29T11:36:58.985Z,18.13
2023-03-29T11:39:09.774Z,23.58
2023-03-29T11:41:17.988Z,18.33
2023-03-29T11:43:27.100Z,30.75
2023-03-29T11:45:34.351Z,21.00
2023-03-29T11:47:41.238Z,21.38
2023-03-29T11:49:49.401Z,24.90
2023-03-29T11:51:59.762Z,21.75
2023-03-29T11:54:06.763Z,20.60
2023-03-29T11:56:13.683Z,24.05
2023-03-29T11:58:20.176Z,22.50
2023-03-29T12:00:27.624Z,18.67
2023-03-29T12:02:34.965Z,18.52
2023-03-29T12:04:45.040Z,26.15
2023-03-29T12:06:53.535Z,17.95
2023-03-29T12:09:02.535Z,18.55
2023-03-29T12:11:10.110Z,18.40
2023-03-29T12:13:19.396Z,19.23
2023-03-29T12:15:25.050Z,19.35
2023-03-29T12:17:32.287Z,23.25
2023-03-29T12:19:43.279Z,17.77
2023-03-29T12:21:50.551Z,20.42
2023-03-29T12:23:58.524Z,17.52
2023-03-29T12:26:07.766Z,19.52
2023-03-29T12:28:23.626Z,21.15
2023-03-29T12:30:42.836Z,23.45
2023-03-29T12:33:09.078Z,27.35
2023-03-29T12:35:52.678Z,18.98
2023-03-29T12:38:22.248Z,20.60
2023-03-29T12:40:48.066Z,19.90
2023-03-29T12:43:21.180Z,21.60
2023-03-29T12:45:51.227Z,18.77
2023-03-29T12:47:58.678Z,29.38
2023-03-29T12:50:02.181Z,23.13
2023-03-29T12:52:22.090Z,22.30
2023-03-29T12:54:28.138Z,21.58
2023-03-29T12:56:42.378Z,25.45
2023-03-29T12:59:05.698Z,30.90
2023-03-29T13:01:11.672Z,22.58
2023-03-29T13:03:29.750Z,19.83
2023-03-29T13:05:34.821Z,19.52
2023-03-29T13:07:47.928Z,24.27
2023-03-29T13:09:52.212Z,23.63
2023-03-29T13:14:06.748Z,18.08
2023-03-29T13:16:14.898Z,19.52
2023-03-29T13:18:39.472Z,25.80
2023-03-29T13:20:46.969Z,19.35
2023-03-29T13:23:04.837Z,30.90
2023-03-29T13:25:35.720Z,25.13
2023-03-29T13:27:48.153Z,25.42
2023-03-29T13:30:04.920Z,26.92
2023-03-29T13:32:27.342Z,23.85
2023-03-29T13:34:38.515Z,21.38
2023-03-29T13:36:53.951Z,24.38
2023-03-29T13:39:00.795Z,24.88
2023-03-29T13:41:05.179Z,22.92
2023-03-29T13:43:21.858Z,24.15
2023-03-29T13:45:27.527Z,27.50
2023-03-29T13:47:43.182Z,21.95
2023-03-29T13:49:54.698Z,20.77
2023-03-29T13:52:13.417Z,23.38
2023-03-29T13:54:27.194Z,22.13
2023-03-29T13:56:34.395Z,20.87
2023-03-29T13:58:45.075Z,22.90
2023-03-29T14:00:52.328Z,29.10
2023-03-29T14:02:57.659Z,22.27
2023-03-29T14:05:02.306Z,26.08
2023-03-29T14:07:06.979Z,22.42
2023-03-29T14:09:12.936Z,22.38
2023-03-29T14:11:23.297Z,20.17
2023-03-29T14:13:27.096Z,23.40
2023-03-29T14:15:42.498Z,18.52
2023-03-29T14:17:45.077Z,35.40
2023-03-29T14:19:48.996Z,20.80
2023-03-29T14:21:53.406Z,25.30
2023-03-29T14:23:59.908Z,23.92
2023-03-29T14:26:08.265Z,21.90
2023-03-29T14:28:20.326Z,20.55
2023-03-29T14:30:27.735Z,25.55
2023-03-29T14:32:33.488Z,23.65
2023-03-29T14:34:36.415Z,23.33
2023-03-29T14:36:39.432Z,26.30
2023-03-29T14:38:44.349Z,19.30
2023-03-29T14:40:47.210Z,25.70
2023-03-29T14:42:51.101Z,23.73
2023-03-29T14:44:58.672Z,23.38
2023-03-29T14:47:03.037Z,23.42
2023-03-29T14:49:10.508Z,26.63
2023-03-29T14:51:15.197Z,21.60
2023-03-29T14:53:20.026Z,21.73
2023-03-29T14:55:24.116Z,20.67
2023-03-29T14:57:32.754Z,28.17
2023-03-29T14:59:38.142Z,21.98
2023-03-29T15:01:44.721Z,23.60
2023-03-29T15:03:54.697Z,27.42
2023-03-29T15:06:04.491Z,27.90
2023-03-29T15:08:15.726Z,27.38
2023-03-29T15:10:19.339Z,24.65
2023-03-29T15:12:22.327Z,26.17
2023-03-29T15:14:27.485Z,20.95
2023-03-29T15:16:30.815Z,28.25
2023-03-29T15:18:38.686Z,24.98
2023-03-29T15:20:45.576Z,23.83
2023-03-29T15:22:58.794Z,24.42
2023-03-29T15:25:04.281Z,26.33
2023-03-29T15:27:14.430Z,23.52
2023-03-29T15:29:26.225Z,23.65
2023-03-29T15:31:35.617Z,28.38
2023-03-29T15:33:40.293Z,26.35
2023-03-29T15:35:54.903Z,24.42
2023-03-29T15:38:03.633Z,23.85
2023-03-29T15:40:16.155Z,27.08
2023-03-29T15:42:18.758Z,24.67
2023-03-29T15:44:26.458Z,24.33
2023-03-29T15:46:29.287Z,21.60
2023-03-29T15:48:33.963Z,20.35
2023-03-29T15:50:37.004Z,19.88
2023-03-29T15:52:40.569Z,21.98
2023-03-29T15:54:45.640Z,20.38
2023-03-29T15:56:52.216Z,21.52
2023-03-29T15:58:54.868Z,20.15
2023-03-29T16:00:59.949Z,20.00
2023-03-29T16:03:02.450Z,18.80
2023-03-29T16:05:05.454Z,21.27
2023-03-29T16:07:14.566Z,18.23
2023-03-29T16:09:17.566Z,19.98
2023-03-29T16:11:22.770Z,19.27
2023-03-29T16:13:25.388Z,19.15
2023-03-29T16:15:28.737Z,17.30
2023-03-29T16:17:31.453Z,18.87
2023-03-29T16:19:34.533Z,19.58
2023-03-29T16:21:37.111Z,18.30
2023-03-29T16:23:39.615Z,18.92
2023-03-29T16:25:42.248Z,19.63
2023-03-29T16:27:47.544Z,18.75
2023-03-29T16:29:59.140Z,20.05
2023-03-29T16:32:02.910Z,19.42
2023-03-29T16:34:06.956Z,19.10
2023-03-29T16:36:10.329Z,17.98
2023-03-29T16:38:12.811Z,19.63
2023-03-29T16:40:16.621Z,19.98
2023-03-29T16:42:19.270Z,17.38
2023-03-29T16:44:26.534Z,17.08
2023-03-29T16:46:29.802Z,17.98
2023-03-29T16:48:32.339Z,17.13
2023-03-29T16:50:34.974Z,16.63
2023-03-29T16:52:38.085Z,16.48
2023-03-29T16:54:42.456Z,15.82
2023-03-29T16:56:45.299Z,15.80
2023-03-29T16:58:47.860Z,13.38
2023-03-29T17:00:53.846Z,14.40
2023-03-29T17:02:56.355Z,13.98
2023-03-29T17:04:59.043Z,13.48
2023-03-29T17:07:01.834Z,12.82
2023-03-29T17:09:05.344Z,13.18
2023-03-29T17:11:08.151Z,12.70
2023-03-29T17:13:11.639Z,15.02
2023-03-29T17:15:14.698Z,13.18
2023-03-29T17:17:19.960Z,13.15
2023-03-29T17:19:23.042Z,12.88
2023-03-29T17:21:26.049Z,12.00
2023-03-29T17:23:29.426Z,13.98
2023-03-29T17:25:32.162Z,14.50
2023-03-29T17:27:35.071Z,13.00
2023-03-29T17:29:38.599Z,12.38
2023-03-29T17:31:47.845Z,12.52
2023-03-29T17:33:53.170Z,15.30
2023-03-29T17:35:56.238Z,14.30
2023-03-29T17:37:59.090Z,16.88
2023-03-29T17:40:02.240Z,16.48
2023-03-29T17:42:04.983Z,15.55
2023-03-29T17:44:07.587Z,13.55
2023-03-29T17:46:10.081Z,14.90
2023-03-29T17:48:12.655Z,19.83
2023-03-29T17:50:18.227Z,15.38
2023-03-29T17:52:20.728Z,14.95
2023-03-29T17:54:23.473Z,15.10
2023-03-29T17:56:26.804Z,15.73
2023-03-29T17:58:29.913Z,14.98
2023-03-29T18:00:32.746Z,16.52
2023-03-29T18:02:35.387Z,18.38
2023-03-29T18:04:38.083Z,17.80
2023-03-29T18:06:43.235Z,18.38
2023-03-29T18:08:45.925Z,17.42
2023-03-29T18:10:48.500Z,15.35
2023-03-29T18:12:51.911Z,14.90
2023-03-29T18:14:54.654Z,19.85
2023-03-29T18:16:57.374Z,20.17
2023-03-29T18:18:59.964Z,18.48
2023-03-29T18:21:02.649Z,21.05
2023-03-29T18:23:07.794Z,17.15
2023-03-29T18:25:11.324Z,22.85
2023-03-29T18:27:15.776Z,24.45
2023-03-29T18:29:18.411Z,19.45
2023-03-29T18:31:21.085Z,17.65
2023-03-29T18:33:23.892Z,17.45
2023-03-29T18:35:27.452Z,18.75
2023-03-29T18:37:30.002Z,20.92
2023-03-29T18:39:35.212Z,21.33
2023-03-29T18:41:37.973Z,19.98
2023-03-29T18:43:41.518Z,21.23
2023-03-29T18:45:44.838Z,23.83
2023-03-29T18:47:47.576Z,20.83
2023-03-29T18:49:50.178Z,19.55
2023-03-29T18:51:54.472Z,20.52
2023-03-29T18:56:03.183Z,17.52
2023-03-29T18:58:06.672Z,20.48
2023-03-29T19:00:13.623Z,21.35
2023-03-29T19:02:16.265Z,17.40
2023-03-29T19:04:20.606Z,20.65
2023-03-29T19:06:23.409Z,22.27
2023-03-29T19:08:26.558Z,20.23
2023-03-29T19:10:29.189Z,20.05
2023-03-29T19:12:34.509Z,18.50
2023-03-29T19:14:36.932Z,20.70
2023-03-29T19:16:41.529Z,20.92
2023-03-29T19:18:47.177Z,21.92
2023-03-29T19:20:51.402Z,19.73
2023-03-29T19:24:56.499Z,16.85
2023-03-29T19:26:59.020Z,17.77
2023-03-29T19:29:04.192Z,24.92
2023-03-29T19:31:07.447Z,19.50
2023-03-29T19:33:10.024Z,19.80
2023-03-29T19:35:13.965Z,26.20
2023-03-29T19:37:17.766Z,19.80
2023-03-29T19:39:21.062Z,17.38
2023-03-29T19:41:23.743Z,23.33
2023-03-29T19:43:27.236Z,21.50
2023-03-29T19:45:32.457Z,20.85
2023-03-29T19:47:35.434Z,19.13
2023-03-29T19:49:38.517Z,17.08
2023-03-29T19:51:41.134Z,18.23
2023-03-29T19:53:43.707Z,19.38
2023-03-29T19:55:46.304Z,19.00
2023-03-29T19:57:48.943Z,20.83
2023-03-29T19:59:54.069Z,21.75
2023-03-29T20:04:02.782Z,16.63
2023-03-29T20:06:05.642Z,18.15
2023-03-29T20:08:08.300Z,16.27
2023-03-29T20:10:11.410Z,20.10
2023-03-29T20:12:14.059Z,20.77
2023-03-29T20:14:16.875Z,18.15
2023-03-29T20:16:19.908Z,16.58
2023-03-29T20:18:25.145Z,17.70
2023-03-29T20:20:28.596Z,17.75
2023-03-29T20:22:32.912Z,18.33
2023-03-29T20:26:37.824Z,17.42
2023-03-29T20:28:40.294Z,17.35
2023-03-29T20:30:43.360Z,21.70
2023-03-29T20:32:45.832Z,19.48
2023-03-29T20:34:50.986Z,16.08
2023-03-29T20:37:01.062Z,16.25
2023-03-29T20:39:04.441Z,17.40
2023-03-29T20:41:09.505Z,16.58
2023-03-29T20:43:13.681Z,19.20
2023-03-29T20:47:21.558Z,18.73
2023-03-29T20:49:26.700Z,16.58
2023-03-29T20:51:32.328Z,15.20
2023-03-29T20:53:34.809Z,19.50
2023-03-29T20:55:40.162Z,18.95
2023-03-29T20:57:43.062Z,16.17
2023-03-29T20:59:46.804Z,22.55
2023-03-29T21:01:50.537Z,19.65
2023-03-29T21:03:53.745Z,18.55
2023-03-29T21:05:58.393Z,17.83
2023-03-29T21:08:04.511Z,16.52
2023-03-29T21:10:08.087Z,22.73
2023-03-29T21:12:11.072Z,17.27
2023-03-29T21:14:14.465Z,19.80
2023-03-29T21:16:17.133Z,20.00
2023-03-29T21:18:20.190Z,20.20
2023-03-29T21:20:22.741Z,17.23
2023-03-29T21:22:25.316Z,19.67
2023-03-29T21:24:32.918Z,18.38
2023-03-29T21:26:35.446Z,17.17
2023-03-29T21:28:38.128Z,17.77
2023-03-29T21:30:42.870Z,18.20
2023-03-29T21:32:45.676Z,17.88
2023-03-29T21:34:48.250Z,20.10
2023-03-29T21:36:50.893Z,17.90
2023-03-29T21:38:53.422Z,24.08
2023-03-29T21:40:59.803Z,18.83
2023-03-29T21:43:04.992Z,18.42
2023-03-29T21:45:09.466Z,21.20
2023-03-29T21:47:11.963Z,16.15
2023-03-29T21:49:14.505Z,17.05
2023-03-29T21:51:16.950Z,17.08
2023-03-29T21:53:19.522Z,19.15
2023-03-29T21:55:22.063Z,22.30
2023-03-29T21:57:27.237Z,20.75
2023-03-29T21:59:29.872Z,20.42
2023-03-29T22:01:32.495Z,19.05
2023-03-29T22:03:36.707Z,21.13
2023-03-29T22:05:39.341Z,18.33
2023-03-29T22:07:41.976Z,20.35
2023-03-29T22:09:44.748Z,19.65
2023-03-29T22:11:47.344Z,16.75
2023-03-29T22:13:54.582Z,19.52
2023-03-29T22:16:00.442Z,20.77
2023-03-29T22:18:03.352Z,18.65
2023-03-29T22:20:13.393Z,19.02
2023-03-29T22:22:16.485Z,19.25
2023-03-29T22:24:19.271Z,21.52
2023-03-29T22:26:23.976Z,20.98
2023-03-29T22:28:26.603Z,18.58
2023-03-29T22:30:31.773Z,22.55
2023-03-29T22:32:34.330Z,22.88
2023-03-29T22:34:36.959Z,28.63
2023-03-29T22:36:39.431Z,17.65
2023-03-29T22:38:42.036Z,25.02
2023-03-29T22:40:44.475Z,21.20
2023-03-29T22:42:46.948Z,18.48
2023-03-29T22:44:49.398Z,21.95
2023-03-29T22:46:54.519Z,18.13
2023-03-29T22:48:57.074Z,18.42
2023-03-29T22:51:00.174Z,19.92
2023-03-29T22:53:02.745Z,19.45
2023-03-29T22:55:06.715Z,18.73
2023-03-29T22:57:09.239Z,19.17
2023-03-29T22:59:11.806Z,20.45
2023-03-29T23:01:14.471Z,16.80
2023-03-29T23:03:19.714Z,19.60
2023-03-29T23:05:23.085Z,35.17
2023-03-29T23:07:25.914Z,37.92
2023-03-29T23:09:28.415Z,36.10
2023-03-29T23:11:31.163Z,52.50
2023-03-29T23:13:35.347Z,44.00
2023-03-29T23:15:43.007Z,38.08
2023-03-29T23:17:45.608Z,45.47
2023-03-29T23:19:51.715Z,61.05
2023-03-29T23:21:55.338Z,59.53
2023-03-29T23:24:00.798Z,55.22
2023-03-29T23:26:04.511Z,50.47
2023-03-29T23:28:07.190Z,54.38
2023-03-29T23:30:11.976Z,47.75
2023-03-29T23:32:15.885Z,63.33
2023-03-29T23:34:20.017Z,51.60
2023-03-29T23:36:27.397Z,48.35
2023-03-29T23:38:30.674Z,62.47
2023-03-29T23:40:33.466Z,70.45
2023-03-29T23:42:37.358Z,49.78
2023-03-29T23:44:42.907Z,48.13
2023-03-29T23:46:45.502Z,57.05
2023-03-29T23:48:50.276Z,67.95
2023-03-29T23:50:52.896Z,47.65
2023-03-29T23:52:58.626Z,47.38
2023-03-29T23:55:01.659Z,67.35
2023-03-29T23:57:04.416Z,53.95
2023-03-29T23:59:06.914Z,54.45
